Time;durP1;ratioP1;P1;durP2;ratioP2;P2;SDS_P1;SDS_P2;PMS_P1;PMS_P2;Temp;Humidity;BMP_temperature;BMP_pressure;BME280_temperature;BME280_humidity;BME280_pressure;Samples;Min_cycle;Max_cycle;Signal;HPM_P1;HPM_P2
2021/10/15 00:01:32;;;;;;;19.92;17.30;;;13.30;99.90;;;;;;5050872;28;20056;-69
2021/10/15 00:03:58;;;;;;;20.10;17.75;;;13.40;99.90;;;;;;5079285;28;20052;-69
2021/10/15 00:06:24;;;;;;;23.15;17.40;;;13.30;99.90;;;;;;5058630;28;20499;-69
2021/10/15 00:08:49;;;;;;;20.83;18.27;;;13.40;99.90;;;;;;5083527;28;20041;-69
2021/10/15 00:11:15;;;;;;;20.33;18.15;;;13.30;99.90;;;;;;5057596;28;20047;-69
2021/10/15 00:13:41;;;;;;;20.50;18.40;;;13.30;99.90;;;;;;5065404;28;20130;-69
2021/10/15 00:16:07;;;;;;;21.45;19.10;;;13.30;99.90;;;;;;5093498;28;20033;-69
2021/10/15 00:18:32;;;;;;;21.83;19.27;;;13.30;99.90;;;;;;5086015;28;20036;-69
2021/10/15 00:20:58;;;;;;;21.98;18.30;;;13.40;99.90;;;;;;5081217;28;20093;-69
2021/10/15 00:23:24;;;;;;;20.60;18.52;;;13.20;99.90;;;;;;5080282;28;20036;-69
2021/10/15 00:25:50;;;;;;;20.85;18.23;;;13.40;99.90;;;;;;5073299;28;20439;-69
2021/10/15 00:28:15;;;;;;;21.45;17.15;;;13.30;99.90;;;;;;5059115;28;20079;-69
2021/10/15 00:30:41;;;;;;;19.65;16.70;;;13.30;99.90;;;;;;5073819;28;20529;-69
2021/10/15 00:33:07;;;;;;;19.83;16.67;;;13.30;99.90;;;;;;5079993;28;20057;-69
2021/10/15 00:35:33;;;;;;;18.02;16.10;;;13.30;99.90;;;;;;5086314;28;20504;-69
2021/10/15 00:37:59;;;;;;;17.00;15.13;;;13.40;99.90;;;;;;5070580;28;20072;-69
2021/10/15 00:40:25;;;;;;;18.85;15.70;;;13.30;99.90;;;;;;5046789;28;20049;-69
2021/10/15 00:42:50;;;;;;;18.52;15.55;;;13.30;99.90;;;;;;5058181;28;20064;-69
2021/10/15 00:45:16;;;;;;;16.35;14.38;;;13.30;99.90;;;;;;5078792;28;20040;-69
2021/10/15 00:47:42;;;;;;;19.65;15.90;;;13.30;99.90;;;;;;5056006;28;20115;-69
2021/10/15 00:50:08;;;;;;;20.50;16.55;;;13.40;99.90;;;;;;5045216;28;20072;-69
2021/10/15 00:52:35;;;;;;;20.60;16.08;;;13.30;99.90;;;;;;5085108;28;20046;-69
2021/10/15 00:55:01;;;;;;;18.70;16.67;;;13.30;99.90;;;;;;5062523;28;20040;-69
2021/10/15 00:57:26;;;;;;;21.08;18.33;;;13.30;99.90;;;;;;5054847;28;20052;-69
2021/10/15 00:59:52;;;;;;;21.50;17.77;;;13.30;99.90;;;;;;5086896;28;20468;-69
2021/10/15 01:02:18;;;;;;;22.33;18.75;;;13.30;99.90;;;;;;5057806;28;20282;-69
2021/10/15 01:04:45;;;;;;;23.13;18.25;;;13.30;99.90;;;;;;5063647;28;20041;-69
2021/10/15 01:07:10;;;;;;;23.83;19.67;;;13.30;99.90;;;;;;5075114;28;20038;-69
2021/10/15 01:09:36;;;;;;;21.65;19.27;;;13.30;99.90;;;;;;5056822;28;20115;-69
2021/10/15 01:12:04;;;;;;;21.92;19.60;;;13.30;99.90;;;;;;5081115;28;20040;-69
2021/10/15 01:14:30;;;;;;;21.88;19.10;;;13.30;99.90;;;;;;5077617;28;20047;-69
2021/10/15 01:17:00;;;;;;;23.85;19.83;;;13.30;99.90;;;;;;5096034;28;20036;-69
2021/10/15 01:19:25;;;;;;;24.02;21.15;;;13.30;99.90;;;;;;5085913;28;20463;-69
2021/10/15 01:21:51;;;;;;;22.27;19.48;;;13.30;99.90;;;;;;5059036;28;20064;-68
2021/10/15 01:24:18;;;;;;;21.83;19.52;;;13.30;99.90;;;;;;5058344;28;20028;-69
2021/10/15 01:26:44;;;;;;;23.60;20.90;;;13.30;99.90;;;;;;5081536;28;20036;-69
2021/10/15 01:29:11;;;;;;;24.27;20.83;;;13.30;99.90;;;;;;5052754;28;20044;-69
2021/10/15 01:31:38;;;;;;;21.77;19.42;;;13.30;99.90;;;;;;5094647;28;20085;-69
2021/10/15 01:34:04;;;;;;;23.55;20.77;;;13.30;99.90;;;;;;5042368;28;20046;-69
2021/10/15 01:36:30;;;;;;;22.15;19.85;;;13.30;99.90;;;;;;5057579;28;20052;-69
2021/10/15 01:38:55;;;;;;;26.40;20.77;;;13.30;99.90;;;;;;5053848;28;20043;-69
2021/10/15 01:41:21;;;;;;;25.10;22.10;;;13.30;99.90;;;;;;5077997;28;20062;-69
2021/10/15 01:43:47;;;;;;;24.73;20.35;;;13.20;99.90;;;;;;5067911;28;20063;-69
2021/10/15 01:46:13;;;;;;;25.17;20.77;;;13.30;99.90;;;;;;5081638;28;20071;-70
2021/10/15 01:48:39;;;;;;;23.83;21.17;;;13.30;99.90;;;;;;5087943;28;20504;-70
2021/10/15 01:51:04;;;;;;;23.90;21.35;;;13.20;99.90;;;;;;5063839;28;20043;-70
2021/10/15 01:53:31;;;;;;;24.73;20.55;;;13.30;99.90;;;;;;5080353;28;20036;-70
2021/10/15 01:55:56;;;;;;;24.60;20.50;;;13.20;99.90;;;;;;5079762;28;20507;-70
2021/10/15 01:58:22;;;;;;;27.00;20.23;;;13.20;99.90;;;;;;5080020;28;20039;-70
2021/10/15 02:00:48;;;;;;;25.40;20.52;;;13.20;99.90;;;;;;5053763;28;20046;-70
2021/10/15 02:03:14;;;;;;;26.02;20.23;;;13.20;99.90;;;;;;5077633;28;20052;-70
2021/10/15 02:05:40;;;;;;;25.38;20.15;;;13.20;99.90;;;;;;5060134;28;20071;-70
2021/10/15 02:08:05;;;;;;;21.70;19.00;;;13.20;99.90;;;;;;5063483;28;20535;-70
2021/10/15 02:10:31;;;;;;;22.05;17.88;;;13.20;99.90;;;;;;5094307;28;20123;-69
2021/10/15 02:12:57;;;;;;;21.08;17.23;;;13.20;99.90;;;;;;5076572;28;20083;-70
2021/10/15 02:15:23;;;;;;;18.92;16.88;;;13.20;99.90;;;;;;5087807;28;20124;-70
2021/10/15 02:17:50;;;;;;;21.92;17.98;;;13.20;99.90;;;;;;5060201;28;20072;-70
2021/10/15 02:20:18;;;;;;;23.25;17.85;;;13.20;99.90;;;;;;5061667;28;20040;-70
2021/10/15 02:22:46;;;;;;;20.17;17.55;;;13.20;99.90;;;;;;5079326;28;20314;-69
2021/10/15 02:25:14;;;;;;;22.58;17.63;;;13.20;99.90;;;;;;5075867;28;20039;-69
2021/10/15 02:27:40;;;;;;;23.88;17.17;;;13.20;99.90;;;;;;5078869;28;20040;-69
2021/10/15 02:30:09;;;;;;;20.38;17.65;;;13.20;99.90;;;;;;5082347;28;20770;-69
2021/10/15 02:32:35;;;;;;;20.25;17.77;;;13.20;99.90;;;;;;5076120;28;20036;-69
2021/10/15 02:35:01;;;;;;;21.52;17.40;;;13.20;99.90;;;;;;5074683;28;20073;-69
2021/10/15 02:37:27;;;;;;;19.95;16.63;;;13.10;99.90;;;;;;5050842;28;20119;-69
2021/10/15 02:39:53;;;;;;;19.88;17.35;;;13.20;99.90;;;;;;5059884;28;20136;-69
2021/10/15 02:42:18;;;;;;;21.75;16.52;;;13.20;99.90;;;;;;5054517;28;20547;-70
2021/10/15 02:44:44;;;;;;;24.80;17.00;;;13.10;99.90;;;;;;5045616;28;20150;-70
2021/10/15 02:47:10;;;;;;;23.75;17.98;;;13.20;99.90;;;;;;5076796;28;20131;-69
2021/10/15 02:49:35;;;;;;;21.30;16.65;;;13.20;99.90;;;;;;5085258;28;20037;-69
2021/10/15 02:52:01;;;;;;;18.15;15.10;;;13.20;99.90;;;;;;5062561;28;20038;-69
2021/10/15 02:54:27;;;;;;;19.02;15.63;;;13.20;99.90;;;;;;5068787;28;20040;-69
2021/10/15 02:56:52;;;;;;;21.90;14.60;;;13.20;99.90;;;;;;5062398;28;20126;-69
2021/10/15 02:59:18;;;;;;;23.25;16.58;;;13.20;99.90;;;;;;5087260;28;20491;-69
2021/10/15 03:01:44;;;;;;;21.98;15.60;;;13.20;99.90;;;;;;5068639;28;20509;-69
2021/10/15 03:04:10;;;;;;;18.75;15.40;;;13.30;99.90;;;;;;5070810;28;20444;-69
2021/10/15 03:06:36;;;;;;;19.33;14.90;;;13.20;99.90;;;;;;5067296;28;20093;-69
2021/10/15 03:09:03;;;;;;;21.70;14.60;;;13.20;99.90;;;;;;5067796;28;20050;-69
2021/10/15 03:11:29;;;;;;;18.83;15.52;;;13.20;99.90;;;;;;5067808;28;20052;-69
2021/10/15 03:13:54;;;;;;;21.38;14.77;;;13.30;99.90;;;;;;5049444;28;20651;-69
2021/10/15 03:16:20;;;;;;;19.73;14.77;;;13.30;99.90;;;;;;5082869;28;20580;-69
2021/10/15 03:18:46;;;;;;;20.10;14.77;;;13.30;99.90;;;;;;5081513;28;20424;-69
2021/10/15 03:21:12;;;;;;;18.80;13.95;;;13.30;99.90;;;;;;5083282;28;20093;-69
2021/10/15 03:23:37;;;;;;;20.05;13.98;;;13.30;99.90;;;;;;5081249;28;20127;-69
2021/10/15 03:26:03;;;;;;;23.30;14.93;;;13.20;99.90;;;;;;5088708;28;20552;-69
2021/10/15 03:28:29;;;;;;;18.23;14.60;;;13.30;99.90;;;;;;5079746;28;20070;-70
2021/10/15 03:30:55;;;;;;;21.05;14.02;;;13.30;99.90;;;;;;5066492;28;20043;-69
2021/10/15 03:33:21;;;;;;;19.15;13.73;;;13.30;99.90;;;;;;5061370;28;20491;-69
2021/10/15 03:35:47;;;;;;;23.13;13.70;;;13.30;99.90;;;;;;5100307;28;20119;-69
2021/10/15 03:38:12;;;;;;;20.45;14.52;;;13.30;99.90;;;;;;5053916;28;20043;-69
2021/10/15 03:40:38;;;;;;;18.50;13.63;;;13.30;99.90;;;;;;5062581;28;20040;-69
2021/10/15 03:43:04;;;;;;;20.98;13.90;;;13.30;99.90;;;;;;5058742;28;20036;-69
2021/10/15 03:45:29;;;;;;;22.35;14.80;;;13.30;99.90;;;;;;5056437;28;20075;-69
2021/10/15 03:47:55;;;;;;;20.55;13.48;;;13.30;99.90;;;;;;5077322;28;20105;-69
2021/10/15 03:50:21;;;;;;;20.23;13.02;;;13.30;99.90;;;;;;5079412;28;20032;-69
2021/10/15 03:52:47;;;;;;;19.92;13.32;;;13.30;99.90;;;;;;5063891;28;20614;-69
2021/10/15 03:55:13;;;;;;;19.73;12.60;;;13.30;99.90;;;;;;5073003;28;20036;-69
2021/10/15 03:57:40;;;;;;;21.15;12.73;;;13.20;99.90;;;;;;5078501;28;20515;-69
2021/10/15 04:00:08;;;;;;;19.02;12.60;;;13.30;99.90;;;;;;5060892;28;20132;-69
2021/10/15 04:02:44;;;;;;;18.95;11.52;;;13.30;99.90;;;;;;5096711;28;20110;-70
2021/10/15 04:05:10;;;;;;;13.57;11.07;;;13.30;99.90;;;;;;5077119;28;20048;-69
2021/10/15 04:07:36;;;;;;;21.50;11.15;;;13.30;99.90;;;;;;5046288;28;20044;-70
2021/10/15 04:10:04;;;;;;;14.05;9.35;;;13.30;99.90;;;;;;5055584;28;20504;-70
2021/10/15 04:12:30;;;;;;;18.38;10.70;;;13.30;99.90;;;;;;5080499;28;20562;-70
2021/10/15 04:14:55;;;;;;;16.30;9.98;;;13.30;99.90;;;;;;5077145;28;20056;-69
2021/10/15 04:17:21;;;;;;;16.17;9.43;;;13.40;99.90;;;;;;5098369;28;20434;-69
2021/10/15 04:19:47;;;;;;;19.05;9.32;;;13.40;99.90;;;;;;5056112;28;20191;-70
2021/10/15 04:22:12;;;;;;;14.65;8.20;;;13.40;99.90;;;;;;5065408;28;20051;-69
2021/10/15 04:24:38;;;;;;;16.08;8.90;;;13.40;99.90;;;;;;5061563;28;20067;-69
2021/10/15 04:27:05;;;;;;;18.15;8.65;;;13.40;99.90;;;;;;5090913;28;20086;-69
2021/10/15 04:29:31;;;;;;;16.77;8.63;;;13.40;99.90;;;;;;5079036;28;20563;-69
2021/10/15 04:31:57;;;;;;;14.88;7.68;;;13.40;99.90;;;;;;5096015;28;20107;-69
2021/10/15 04:34:23;;;;;;;15.02;7.93;;;13.40;99.90;;;;;;5081582;28;20404;-69
2021/10/15 04:36:48;;;;;;;16.02;8.40;;;13.40;99.90;;;;;;5071757;28;20039;-69
2021/10/15 04:39:14;;;;;;;13.43;7.72;;;13.40;99.90;;;;;;5077786;28;20035;-69
2021/10/15 04:41:41;;;;;;;19.40;11.75;;;13.40;99.90;;;;;;5089085;28;20048;-69
2021/10/15 04:44:07;;;;;;;17.63;8.15;;;13.50;99.90;;;;;;5081736;28;20101;-69
2021/10/15 04:46:33;;;;;;;16.33;9.00;;;13.50;99.90;;;;;;5089719;28;20441;-69
2021/10/15 04:48:58;;;;;;;15.45;7.47;;;13.50;99.90;;;;;;5087673;28;20040;-69
2021/10/15 04:51:24;;;;;;;35.53;22.05;;;13.50;99.90;;;;;;5088216;28;20032;-69
2021/10/15 04:53:50;;;;;;;17.02;9.20;;;13.50;99.90;;;;;;5066108;28;20483;-69
2021/10/15 04:56:15;;;;;;;17.65;8.48;;;13.50;99.90;;;;;;5081569;28;20043;-69
2021/10/15 04:58:41;;;;;;;17.80;7.88;;;13.50;99.90;;;;;;5061618;28;20074;-69
2021/10/15 05:01:07;;;;;;;19.10;9.57;;;13.50;99.90;;;;;;5078382;28;20032;-69
2021/10/15 05:03:32;;;;;;;16.70;8.10;;;13.40;99.90;;;;;;5073527;28;20158;-69
2021/10/15 05:05:58;;;;;;;18.30;8.70;;;13.40;99.90;;;;;;5063480;28;20601;-69
2021/10/15 05:08:30;;;;;;;17.60;9.63;;;13.40;99.90;;;;;;5055313;28;20036;-68
2021/10/15 05:10:56;;;;;;;19.05;9.68;;;13.40;99.90;;;;;;5080556;28;20032;-67
2021/10/15 05:13:21;;;;;;;20.42;9.55;;;13.40;99.90;;;;;;5072269;28;20051;-69
2021/10/15 05:15:48;;;;;;;22.77;10.23;;;13.30;99.90;;;;;;5078476;28;20480;-69
2021/10/15 05:18:15;;;;;;;23.23;11.48;;;13.30;99.90;;;;;;5056973;28;20101;-68
2021/10/15 05:20:42;;;;;;;22.95;10.68;;;13.20;99.90;;;;;;5084054;28;20041;-68
2021/10/15 05:23:08;;;;;;;23.45;11.43;;;13.20;99.90;;;;;;5052881;28;20059;-67
2021/10/15 05:25:35;;;;;;;21.98;10.23;;;13.20;99.90;;;;;;5078614;28;20044;-67
2021/10/15 05:28:01;;;;;;;19.10;9.70;;;13.10;99.90;;;;;;5068362;28;20055;-67
2021/10/15 05:30:27;;;;;;;19.10;10.75;;;13.10;99.90;;;;;;5077648;28;20032;-67
2021/10/15 05:32:53;;;;;;;19.23;8.45;;;13.00;99.90;;;;;;5060395;28;20498;-67
2021/10/15 05:35:19;;;;;;;15.98;6.30;;;13.00;99.90;;;;;;5061470;28;20052;-67
2021/10/15 05:37:45;;;;;;;16.00;4.97;;;13.00;99.90;;;;;;5077491;28;20179;-67
2021/10/15 05:40:12;;;;;;;12.15;5.28;;;13.00;99.90;;;;;;5062155;28;20147;-67
2021/10/15 05:42:47;;;;;;;5.18;2.30;;;12.90;99.90;;;;;;5036995;28;20059;-66
2021/10/15 05:45:13;;;;;;;2.28;0.65;;;12.80;99.90;;;;;;5071535;28;20124;-67
2021/10/15 05:47:39;;;;;;;1.38;0.43;;;12.70;99.90;;;;;;5080331;28;20047;-67
2021/10/15 05:50:06;;;;;;;1.58;0.30;;;12.40;99.90;;;;;;5075808;28;20454;-66
2021/10/15 05:52:39;;;;;;;0.88;0.20;;;12.30;99.90;;;;;;5076535;28;20458;-66
2021/10/15 06:00:23;;;;;;;1.55;0.17;;;11.70;99.90;;;;;;5076557;28;20051;-66
2021/10/15 06:02:49;;;;;;;2.75;0.28;;;11.60;99.90;;;;;;5075120;28;20063;-67
2021/10/15 06:16:02;;;;;;;2.70;0.20;;;11.10;99.90;;;;;;5073701;28;20050;-68
2021/10/15 06:18:27;;;;;;;5.15;0.40;;;11.10;99.90;;;;;;5076099;28;20044;-68
2021/10/15 06:20:53;;;;;;;5.25;0.70;;;11.00;99.90;;;;;;5070953;28;20420;-68
2021/10/15 06:23:20;;;;;;;5.28;0.52;;;11.00;99.90;;;;;;5074488;28;20032;-67
2021/10/15 06:25:47;;;;;;;5.43;0.50;;;11.00;99.90;;;;;;5059560;28;20048;-68
2021/10/15 06:28:14;;;;;;;2.95;0.50;;;11.00;99.90;;;;;;5068437;28;20050;-68
2021/10/15 06:30:40;;;;;;;5.45;0.68;;;11.00;99.90;;;;;;5088213;28;20113;-67
2021/10/15 06:33:07;;;;;;;9.32;0.93;;;11.00;99.90;;;;;;5080030;28;20039;-68
2021/10/15 06:35:33;;;;;;;6.22;0.50;;;10.90;99.90;;;;;;5077391;28;20057;-68
2021/10/15 06:37:59;;;;;;;6.50;0.98;;;11.00;99.90;;;;;;5078666;28;20051;-68
2021/10/15 06:40:25;;;;;;;4.90;0.60;;;10.90;99.90;;;;;;5070897;28;20108;-68
2021/10/15 06:42:51;;;;;;;9.75;0.65;;;10.90;99.90;;;;;;5059945;28;20484;-68
2021/10/15 06:45:17;;;;;;;4.75;0.70;;;10.90;99.90;;;;;;5074898;28;20074;-68
2021/10/15 06:47:43;;;;;;;6.63;0.50;;;10.80;99.90;;;;;;5085193;28;20071;-68
2021/10/15 06:50:09;;;;;;;7.38;0.88;;;10.80;99.90;;;;;;5067603;28;20059;-68
2021/10/15 06:52:46;;;;;;;5.13;0.60;;;10.80;99.90;;;;;;5065611;28;20091;-68
2021/10/15 06:55:13;;;;;;;8.60;1.95;;;10.80;99.90;;;;;;5088834;28;20040;-68
2021/10/15 06:57:39;;;;;;;5.10;0.70;;;10.70;99.90;;;;;;5065899;28;20123;-68
2021/10/15 07:00:06;;;;;;;4.88;0.60;;;10.70;99.90;;;;;;5079552;28;20043;-67
2021/10/15 07:02:31;;;;;;;10.15;0.80;;;10.70;99.90;;;;;;5045493;28;20052;-67
2021/10/15 07:04:57;;;;;;;5.70;1.00;;;10.70;99.90;;;;;;5070628;28;20078;-67
2021/10/15 07:07:23;;;;;;;6.65;0.90;;;10.70;99.90;;;;;;5051127;28;20055;-68
2021/10/15 07:09:48;;;;;;;4.53;0.77;;;10.70;99.90;;;;;;5075982;28;20514;-68
2021/10/15 07:12:14;;;;;;;4.70;0.80;;;10.60;99.90;;;;;;5071927;28;20040;-68
2021/10/15 07:14:40;;;;;;;6.40;0.70;;;10.70;99.90;;;;;;5076017;28;20139;-67
2021/10/15 07:17:05;;;;;;;4.75;0.70;;;10.60;99.90;;;;;;5070109;28;20051;-67
2021/10/15 07:19:31;;;;;;;10.35;1.20;;;10.60;99.90;;;;;;5073007;28;20040;-67
2021/10/15 07:21:57;;;;;;;9.25;1.20;;;10.60;99.90;;;;;;5072185;28;20039;-67
2021/10/15 07:24:22;;;;;;;6.40;1.20;;;10.60;99.90;;;;;;5088412;28;20051;-67
2021/10/15 07:26:48;;;;;;;6.18;1.02;;;10.60;99.90;;;;;;5075396;28;20040;-68
2021/10/15 07:29:14;;;;;;;5.43;0.75;;;10.50;99.90;;;;;;5059595;28;20143;-67
2021/10/15 07:31:39;;;;;;;9.75;0.90;;;10.50;99.90;;;;;;5086098;28;20044;-67
2021/10/15 07:34:05;;;;;;;6.55;0.80;;;10.50;99.90;;;;;;5088066;28;20412;-67
2021/10/15 07:36:32;;;;;;;6.22;0.70;;;10.60;99.90;;;;;;5079764;28;20036;-67
2021/10/15 07:38:58;;;;;;;9.80;0.80;;;10.60;99.90;;;;;;5073194;28;20040;-67
2021/10/15 07:41:23;;;;;;;10.65;0.95;;;10.60;99.90;;;;;;5078302;28;20417;-67
2021/10/15 07:43:50;;;;;;;4.63;0.50;;;10.60;99.90;;;;;;5078252;28;20064;-67
2021/10/15 07:46:19;;;;;;;8.50;0.75;;;10.60;99.90;;;;;;5095695;28;20143;-67
2021/10/15 07:48:45;;;;;;;7.10;0.80;;;10.60;99.90;;;;;;5053235;28;20495;-67
2021/10/15 07:51:11;;;;;;;5.90;0.70;;;10.70;99.90;;;;;;5095468;28;20079;-67
2021/10/15 07:53:36;;;;;;;10.43;1.00;;;10.70;99.90;;;;;;5072954;28;20048;-67
2021/10/15 07:56:02;;;;;;;8.50;1.40;;;10.80;99.90;;;;;;5067428;28;20080;-67
2021/10/15 07:58:28;;;;;;;9.77;0.98;;;10.80;99.90;;;;;;5055524;28;20504;-67
2021/10/15 08:00:54;;;;;;;6.70;0.70;;;10.80;99.90;;;;;;5078677;28;20075;-67
2021/10/15 08:03:19;;;;;;;9.70;1.77;;;10.90;99.90;;;;;;5054897;28;20060;-67
2021/10/15 08:05:45;;;;;;;7.60;0.82;;;11.00;99.90;;;;;;5075382;28;20335;-67
2021/10/15 08:08:11;;;;;;;6.38;0.73;;;11.00;99.90;;;;;;5079991;28;20126;-67
2021/10/15 08:10:37;;;;;;;5.82;1.13;;;11.10;99.90;;;;;;5092000;28;20048;-67
2021/10/15 08:13:03;;;;;;;8.50;0.85;;;11.40;99.90;;;;;;5076557;28;20535;-67
2021/10/15 08:15:28;;;;;;;7.43;1.02;;;12.40;99.90;;;;;;5070156;28;20082;-67
2021/10/15 08:17:55;;;;;;;11.98;1.40;;;13.60;99.90;;;;;;5080333;28;20099;-67
2021/10/15 08:20:21;;;;;;;6.78;0.88;;;14.50;99.90;;;;;;5073185;28;20093;-67
2021/10/15 08:22:52;;;;;;;8.10;1.20;;;15.30;99.90;;;;;;5072683;28;20048;-67
2021/10/15 08:25:17;;;;;;;5.18;0.80;;;15.30;99.90;;;;;;5079912;28;20511;-67
2021/10/15 08:27:43;;;;;;;8.10;0.93;;;14.80;99.90;;;;;;5082639;28;20040;-67
2021/10/15 08:30:09;;;;;;;6.60;0.93;;;14.40;99.90;;;;;;5078291;28;20754;-67
2021/10/15 08:32:35;;;;;;;6.65;0.90;;;14.30;99.90;;;;;;5086183;28;20428;-67
2021/10/15 08:35:01;;;;;;;7.45;1.00;;;14.10;99.90;;;;;;5074580;28;20040;-67
2021/10/15 08:37:27;;;;;;;10.43;1.55;;;13.70;99.90;;;;;;5085228;28;20040;-66
2021/10/15 08:39:53;;;;;;;6.60;0.98;;;13.30;99.90;;;;;;5080214;28;20039;-66
2021/10/15 08:42:19;;;;;;;5.93;0.90;;;13.10;99.90;;;;;;5085590;28;20075;-67
2021/10/15 08:44:46;;;;;;;7.30;0.80;;;13.20;99.90;;;;;;5076831;28;20567;-67
2021/10/15 08:47:14;;;;;;;7.50;0.88;;;13.10;99.90;;;;;;5096295;28;20396;-67
2021/10/15 08:49:40;;;;;;;6.28;1.08;;;13.00;99.90;;;;;;5084014;28;20447;-67
2021/10/15 08:52:06;;;;;;;8.32;0.98;;;13.30;99.90;;;;;;5072943;28;20036;-67
2021/10/15 08:54:32;;;;;;;8.45;1.10;;;14.00;99.90;;;;;;5084617;28;20043;-67
2021/10/15 08:56:59;;;;;;;7.13;1.10;;;14.90;99.90;;;;;;5076896;28;20040;-67
2021/10/15 08:59:38;;;;;;;7.95;0.93;;;15.90;99.90;;;;;;5083797;28;20476;-67
2021/10/15 09:02:10;;;;;;;7.03;0.88;;;17.00;99.90;;;;;;5080689;28;20645;-68
2021/10/15 09:04:44;;;;;;;7.50;1.00;;;17.60;99.90;;;;;;5104208;27;20052;-68
2021/10/15 09:07:14;;;;;;;7.13;3.08;;;18.00;99.90;;;;;;5097535;27;20086;-69
2021/10/15 09:09:40;;;;;;;11.30;1.73;;;18.30;96.90;;;;;;5083912;28;20064;-69
2021/10/15 09:12:15;;;;;;;7.38;1.58;;;18.60;97.00;;;;;;5079935;28;20031;-69
2021/10/15 09:14:42;;;;;;;8.90;1.50;;;18.80;92.30;;;;;;5083979;28;20093;-69
2021/10/15 09:17:18;;;;;;;7.53;1.20;;;19.10;94.30;;;;;;5067666;28;20075;-69
2021/10/15 09:19:50;;;;;;;10.57;1.30;;;19.20;91.20;;;;;;5069599;28;20497;-69
2021/10/15 09:22:20;;;;;;;8.35;1.17;;;19.30;89.50;;;;;;5081438;28;20369;-69
2021/10/15 09:25:00;;;;;;;8.05;1.27;;;19.00;86.80;;;;;;5072877;28;20123;-69
2021/10/15 09:27:41;;;;;;;8.30;1.40;;;19.30;90.60;;;;;;5071930;28;20120;-69
2021/10/15 09:30:14;;;;;;;7.53;1.45;;;19.40;83.00;;;;;;5074012;28;20037;-69
2021/10/15 09:32:46;;;;;;;5.93;1.13;;;19.50;85.70;;;;;;5078473;28;20097;-69
2021/10/15 09:35:14;;;;;;;10.75;1.58;;;19.30;79.70;;;;;;5085165;28;20410;-69
2021/10/15 09:37:43;;;;;;;12.20;1.75;;;19.00;82.10;;;;;;5074562;28;20111;-69
2021/10/15 09:40:10;;;;;;;9.50;1.38;;;18.90;80.00;;;;;;5077242;28;20068;-69
2021/10/15 09:42:41;;;;;;;7.32;1.08;;;18.40;81.70;;;;;;5087600;28;20559;-69
2021/10/15 09:45:17;;;;;;;9.90;1.45;;;17.90;80.70;;;;;;5083997;28;20076;-70
2021/10/15 09:47:49;;;;;;;10.00;1.77;;;17.70;81.70;;;;;;5087809;28;20046;-70
2021/10/15 09:50:21;;;;;;;10.80;1.75;;;17.50;85.00;;;;;;5066700;28;20071;-70
2021/10/15 09:53:09;;;;;;;9.68;1.48;;;17.50;86.40;;;;;;5077865;28;20540;-70
2021/10/15 09:55:40;;;;;;;8.13;1.48;;;17.50;85.90;;;;;;5079712;28;20048;-70
2021/10/15 09:58:24;;;;;;;12.20;2.13;;;17.40;84.00;;;;;;5088006;28;20036;-70
2021/10/15 10:00:51;;;;;;;10.65;2.17;;;17.10;80.20;;;;;;5076834;28;20044;-71
2021/10/15 10:03:19;;;;;;;10.60;2.00;;;17.00;83.00;;;;;;5068039;28;20044;-70
2021/10/15 10:05:45;;;;;;;8.43;1.70;;;17.00;83.50;;;;;;5084375;28;20066;-70
2021/10/15 10:08:11;;;;;;;12.93;2.00;;;16.80;83.00;;;;;;5089625;28;20163;-70
2021/10/15 10:10:38;;;;;;;17.40;2.70;;;16.60;82.40;;;;;;5055429;28;20162;-70
2021/10/15 10:13:05;;;;;;;12.32;2.67;;;16.40;81.70;;;;;;5073708;28;20048;-70
2021/10/15 10:15:33;;;;;;;13.75;2.70;;;16.20;82.60;;;;;;5078054;28;20044;-70
2021/10/15 10:18:47;;;;;;;13.63;2.55;;;16.00;82.00;;;;;;5056148;28;20121;-69
2021/10/15 10:21:07;;;;;;;12.18;2.63;;;15.90;82.20;;;;;;5047744;28;20052;-70
2021/10/15 10:24:06;;;;;;;9.50;2.10;;;16.10;80.70;;;;;;5095474;28;20051;-70
2021/10/15 10:26:47;;;;;;;12.38;2.30;;;16.40;75.40;;;;;;5080907;28;20176;-70
2021/10/15 10:29:13;;;;;;;13.00;2.45;;;16.80;72.90;;;;;;5069504;28;20127;-69
2021/10/15 10:31:39;;;;;;;14.70;2.75;;;16.70;75.90;;;;;;5057674;28;20060;-70
2021/10/15 10:34:07;;;;;;;14.07;2.83;;;16.60;76.30;;;;;;5060064;28;20057;-69
2021/10/15 10:36:35;;;;;;;14.77;2.88;;;17.00;76.30;;;;;;5086880;28;20044;-69
2021/10/15 10:39:20;;;;;;;17.38;3.00;;;17.70;74.50;;;;;;5074646;28;20345;-69
2021/10/15 10:42:08;;;;;;;13.07;3.05;;;18.20;70.80;;;;;;5077498;28;20498;-69
2021/10/15 10:44:36;;;;;;;14.35;2.15;;;18.10;70.30;;;;;;5076468;28;20106;-70
2021/10/15 10:47:09;;;;;;;12.07;2.30;;;18.40;68.50;;;;;;5085922;28;20126;-69
2021/10/15 10:49:35;;;;;;;12.68;2.45;;;18.20;61.00;;;;;;5052192;28;20059;-69
2021/10/15 10:52:10;;;;;;;18.48;2.75;;;18.10;63.40;;;;;;5059351;28;20044;-69
2021/10/15 10:54:37;;;;;;;11.00;1.80;;;18.30;62.10;;;;;;5073838;28;20051;-69
2021/10/15 10:57:20;;;;;;;10.63;2.17;;;18.40;61.10;;;;;;5074752;28;20036;-69
2021/10/15 10:59:46;;;;;;;13.88;2.50;;;18.60;58.10;;;;;;5066168;28;20079;-69
2021/10/15 11:02:17;;;;;;;12.63;2.63;;;18.70;60.30;;;;;;5076078;28;20631;-69
2021/10/15 11:04:43;;;;;;;11.88;1.98;;;19.00;59.70;;;;;;5074036;28;20040;-69
2021/10/15 11:07:20;;;;;;;12.15;2.33;;;19.30;59.10;;;;;;5079673;28;20097;-69
2021/10/15 11:09:50;;;;;;;11.23;2.38;;;19.50;57.90;;;;;;5060342;28;20056;-69
2021/10/15 11:12:26;;;;;;;10.25;2.20;;;19.70;57.20;;;;;;5073514;28;20139;-69
2021/10/15 11:15:04;;;;;;;13.48;2.92;;;19.60;56.90;;;;;;5077542;28;20115;-69
2021/10/15 11:17:36;;;;;;;14.35;2.67;;;19.50;56.00;;;;;;5081584;28;20044;-69
2021/10/15 11:20:20;;;;;;;10.23;2.05;;;19.30;56.50;;;;;;5082832;28;20479;-69
2021/10/15 11:22:49;;;;;;;8.40;1.85;;;19.20;56.80;;;;;;5075437;28;20280;-68
2021/10/15 11:25:15;;;;;;;10.80;2.10;;;19.20;57.10;;;;;;5082295;28;20563;-69
2021/10/15 11:27:41;;;;;;;9.27;1.90;;;19.00;58.40;;;;;;5073099;28;20116;-69
2021/10/15 11:30:09;;;;;;;9.52;2.03;;;18.50;56.30;;;;;;5068825;28;20048;-69
2021/10/15 11:32:40;;;;;;;16.52;2.40;;;18.10;55.60;;;;;;5055170;28;20048;-69
2021/10/15 11:35:20;;;;;;;7.15;1.45;;;18.00;57.10;;;;;;5077132;28;20040;-69
2021/10/15 11:38:13;;;;;;;12.05;2.60;;;18.10;57.80;;;;;;5055370;28;20049;-69
2021/10/15 11:40:44;;;;;;;9.98;2.22;;;18.40;58.40;;;;;;5080942;28;20105;-69
2021/10/15 11:43:15;;;;;;;11.63;2.30;;;18.60;56.50;;;;;;5075101;28;20055;-68
2021/10/15 11:45:55;;;;;;;12.95;2.38;;;18.70;57.80;;;;;;5095608;28;20051;-68
2021/10/15 11:48:30;;;;;;;9.05;1.88;;;18.60;56.40;;;;;;5073681;28;20036;-68
2021/10/15 11:50:57;;;;;;;15.55;2.63;;;18.60;57.00;;;;;;5083151;28;20082;-69
2021/10/15 11:53:37;;;;;;;9.48;1.90;;;18.90;58.10;;;;;;5078094;28;20047;-68
2021/10/15 11:56:05;;;;;;;15.15;2.15;;;18.90;55.90;;;;;;5063907;28;20123;-69
2021/10/15 11:58:37;;;;;;;12.60;2.22;;;18.30;57.20;;;;;;5056967;28;20064;-68
2021/10/15 12:01:08;;;;;;;11.30;1.95;;;18.10;57.60;;;;;;5076864;28;20453;-68
2021/10/15 12:03:49;;;;;;;13.13;2.42;;;18.00;54.90;;;;;;5071847;28;20542;-68
2021/10/15 12:06:39;;;;;;;10.65;2.40;;;18.20;55.60;;;;;;5081795;28;20032;-68
2021/10/15 12:09:10;;;;;;;10.90;2.53;;;18.50;53.90;;;;;;5074432;28;20035;-68
2021/10/15 12:11:45;;;;;;;11.13;2.35;;;18.50;52.50;;;;;;5054867;28;20060;-68
2021/10/15 12:14:31;;;;;;;7.82;2.05;;;18.60;54.00;;;;;;5072984;28;20060;-68
2021/10/15 12:17:11;;;;;;;10.43;2.33;;;18.70;52.40;;;;;;5079941;28;20182;-68
2021/10/15 12:19:38;;;;;;;10.90;2.38;;;18.60;53.20;;;;;;5072451;28;20388;-68
2021/10/15 12:22:12;;;;;;;10.15;1.90;;;18.30;55.50;;;;;;5086798;28;20487;-68
2021/10/15 12:24:47;;;;;;;8.93;2.30;;;17.60;55.20;;;;;;5075369;28;20049;-68
2021/10/15 12:27:18;;;;;;;;;;;16.50;57.60;;;;;;5079047;28;20045;-73
2021/10/15 12:29:56;;;;;;;13.02;2.40;;;15.80;59.90;;;;;;5072171;28;20081;-72
2021/10/15 12:32:27;;;;;;;14.10;2.63;;;15.40;62.00;;;;;;5059103;28;20071;-71
2021/10/15 12:35:09;;;;;;;12.93;2.30;;;15.20;63.50;;;;;;5059156;28;20087;-72
2021/10/15 12:37:50;;;;;;;14.18;3.00;;;15.10;64.70;;;;;;5096046;28;20084;-71
2021/10/15 12:40:29;;;;;;;15.35;2.33;;;15.00;65.90;;;;;;5091784;28;20529;-70
2021/10/15 12:42:55;;;;;;;12.30;2.25;;;14.80;65.10;;;;;;5063494;28;20079;-70
2021/10/15 12:45:25;;;;;;;10.15;1.90;;;14.70;64.80;;;;;;5095711;28;20117;-70
2021/10/15 12:48:03;;;;;;;11.40;2.35;;;14.60;65.60;;;;;;5065003;28;20111;-70
2021/10/15 12:50:31;;;;;;;12.50;2.38;;;14.50;66.00;;;;;;5090932;28;20154;-70
2021/10/15 12:52:57;;;;;;;13.23;2.53;;;14.40;67.00;;;;;;5059645;28;20383;-70
2021/10/15 12:55:25;;;;;;;15.55;3.00;;;14.40;67.40;;;;;;5068032;28;20051;-71
2021/10/15 12:58:05;;;;;;;13.75;2.38;;;14.50;66.50;;;;;;5051013;28;20041;-71